Huize, China
Current Conditions -  °F | °C
As of 8:00 PM on Saturday 20 Dec 2014 (Local Time) from ZPPP Reporting Station
Clear Clear  
Wind Chill: 37°   Ceiling: Unl
Heat Index: 45°   Visibility: 6mi
Dew Point: 32°   Wind: 18mph
Humidity: 61%   Direction: 220°SW
Pressure: 30.09"   Gusts: NA
Location:  26.42°N, 103.28°E
Report Text: ZPPP 201200Z 22008MPS CAVOK 07/00 Q1019 NOSIG
Loading
Personal Weather Stations






























Interactive Weather Map New forecast layout! Learn more

10-Day Weather Forecast

Advertisements
Track Severe Weather on mobile